sensor_id;sensor_type;location;lat;lon;timestamp;P1;durP1;ratioP1;P2;durP2;ratioP2
74487;SDS011;63019;51.080;13.642;2022-09-01T00:00:53;5.93;;;1.58;;
74487;SDS011;63019;51.080;13.642;2022-09-01T00:01:54;6.90;;;1.63;;
74487;SDS011;63019;51.080;13.642;2022-09-01T00:02:56;4.13;;;1.40;;
74487;SDS011;63019;51.080;13.642;2022-09-01T00:03:59;4.90;;;1.42;;
74487;SDS011;63019;51.080;13.642;2022-09-01T00:05:04;4.55;;;1.40;;
74487;SDS011;63019;51.080;13.642;2022-09-01T00:06:07;6.53;;;1.50;;
74487;SDS011;63019;51.080;13.642;2022-09-01T00:07:11;4.88;;;1.48;;
74487;SDS011;63019;51.080;13.642;2022-09-01T00:08:13;6.40;;;1.60;;
74487;SDS011;63019;51.080;13.642;2022-09-01T00:09:19;4.63;;;1.67;;
74487;SDS011;63019;51.080;13.642;2022-09-01T00:10:21;6.00;;;1.70;;
74487;SDS011;63019;51.080;13.642;2022-09-01T00:11:24;4.20;;;1.58;;
74487;SDS011;63019;51.080;13.642;2022-09-01T00:12:28;2.63;;;1.60;;
74487;SDS011;63019;51.080;13.642;2022-09-01T00:13:30;4.23;;;1.40;;
74487;SDS011;63019;51.080;13.642;2022-09-01T00:14:37;6.60;;;1.73;;
74487;SDS011;63019;51.080;13.642;2022-09-01T00:15:41;13.18;;;1.98;;
74487;SDS011;63019;51.080;13.642;2022-09-01T00:16:43;9.75;;;2.20;;
74487;SDS011;63019;51.080;13.642;2022-09-01T00:17:50;10.00;;;2.60;;
74487;SDS011;63019;51.080;13.642;2022-09-01T00:18:52;6.30;;;2.10;;
74487;SDS011;63019;51.080;13.642;2022-09-01T00:19:55;8.18;;;1.80;;
74487;SDS011;63019;51.080;13.642;2022-09-01T00:20:57;4.88;;;2.08;;
74487;SDS011;63019;51.080;13.642;2022-09-01T00:22:00;4.95;;;1.83;;
74487;SDS011;63019;51.080;13.642;2022-09-01T00:23:02;6.15;;;1.90;;
74487;SDS011;63019;51.080;13.642;2022-09-01T00:24:04;3.93;;;1.77;;
74487;SDS011;63019;51.080;13.642;2022-09-01T00:25:07;3.80;;;1.73;;
74487;SDS011;63019;51.080;13.642;2022-09-01T00:26:09;3.88;;;1.80;;
74487;SDS011;63019;51.080;13.642;2022-09-01T00:27:12;7.53;;;1.70;;
74487;SDS011;63019;51.080;13.642;2022-09-01T00:28:13;3.42;;;1.40;;
74487;SDS011;63019;51.080;13.642;2022-09-01T00:29:15;4.35;;;1.73;;
74487;SDS011;63019;51.080;13.642;2022-09-01T00:30:17;2.78;;;1.35;;
74487;SDS011;63019;51.080;13.642;2022-09-01T00:31:20;3.80;;;1.27;;
74487;SDS011;63019;51.080;13.642;2022-09-01T00:32:22;7.20;;;1.45;;
74487;SDS011;63019;51.080;13.642;2022-09-01T00:33:25;4.85;;;1.60;;
74487;SDS011;63019;51.080;13.642;2022-09-01T00:34:27;5.03;;;1.60;;
74487;SDS011;63019;51.080;13.642;2022-09-01T00:35:29;5.40;;;1.70;;
74487;SDS011;63019;51.080;13.642;2022-09-01T00:36:37;2.17;;;1.30;;
74487;SDS011;63019;51.080;13.642;2022-09-01T00:37:39;3.38;;;1.60;;
74487;SDS011;63019;51.080;13.642;2022-09-01T00:38:41;4.00;;;1.70;;
74487;SDS011;63019;51.080;13.642;2022-09-01T00:39:43;4.07;;;1.50;;
74487;SDS011;63019;51.080;13.642;2022-09-01T00:40:45;3.05;;;1.58;;
74487;SDS011;63019;51.080;13.642;2022-09-01T00:41:47;6.18;;;1.50;;
74487;SDS011;63019;51.080;13.642;2022-09-01T00:42:51;4.18;;;1.60;;
74487;SDS011;63019;51.080;13.642;2022-09-01T00:43:55;3.45;;;1.27;;
74487;SDS011;63019;51.080;13.642;2022-09-01T00:45:01;4.60;;;1.43;;
74487;SDS011;63019;51.080;13.642;2022-09-01T00:46:04;9.02;;;1.38;;
74487;SDS011;63019;51.080;13.642;2022-09-01T00:47:11;7.20;;;1.60;;
74487;SDS011;63019;51.080;13.642;2022-09-01T00:48:13;7.28;;;1.40;;
74487;SDS011;63019;51.080;13.642;2022-09-01T00:49:18;6.28;;;1.60;;
74487;SDS011;63019;51.080;13.642;2022-09-01T00:50:24;2.40;;;1.00;;
74487;SDS011;63019;51.080;13.642;2022-09-01T00:51:26;7.50;;;1.38;;
74487;SDS011;63019;51.080;13.642;2022-09-01T00:52:30;3.70;;;1.30;;
74487;SDS011;63019;51.080;13.642;2022-09-01T00:53:35;3.13;;;1.40;;
74487;SDS011;63019;51.080;13.642;2022-09-01T00:54:41;4.35;;;1.27;;
74487;SDS011;63019;51.080;13.642;2022-09-01T00:55:45;4.20;;;1.33;;
74487;SDS011;63019;51.080;13.642;2022-09-01T00:56:47;4.03;;;1.23;;
74487;SDS011;63019;51.080;13.642;2022-09-01T00:57:58;1.90;;;1.20;;
74487;SDS011;63019;51.080;13.642;2022-09-01T00:59:02;4.00;;;1.80;;
74487;SDS011;63019;51.080;13.642;2022-09-01T01:00:09;4.57;;;1.50;;
74487;SDS011;63019;51.080;13.642;2022-09-01T01:01:14;3.80;;;1.70;;
74487;SDS011;63019;51.080;13.642;2022-09-01T01:02:16;3.50;;;1.20;;
74487;SDS011;63019;51.080;13.642;2022-09-01T01:03:18;3.67;;;1.20;;
74487;SDS011;63019;51.080;13.642;2022-09-01T01:04:21;2.97;;;1.38;;
74487;SDS011;63019;51.080;13.642;2022-09-01T01:05:24;3.30;;;1.40;;
74487;SDS011;63019;51.080;13.642;2022-09-01T01:06:30;1.90;;;1.20;;
74487;SDS011;63019;51.080;13.642;2022-09-01T01:07:33;2.20;;;1.33;;
74487;SDS011;63019;51.080;13.642;2022-09-01T01:08:39;4.82;;;1.40;;
74487;SDS011;63019;51.080;13.642;2022-09-01T01:09:49;7.32;;;1.40;;
74487;SDS011;63019;51.080;13.642;2022-09-01T01:10:51;6.57;;;1.50;;
74487;SDS011;63019;51.080;13.642;2022-09-01T01:11:53;5.90;;;1.70;;
74487;SDS011;63019;51.080;13.642;2022-09-01T01:12:59;5.95;;;1.58;;
74487;SDS011;63019;51.080;13.642;2022-09-01T01:14:05;3.83;;;1.30;;
74487;SDS011;63019;51.080;13.642;2022-09-01T01:15:16;5.57;;;1.45;;
74487;SDS011;63019;51.080;13.642;2022-09-01T01:16:20;5.72;;;1.42;;
74487;SDS011;63019;51.080;13.642;2022-09-01T01:17:23;5.03;;;1.50;;
74487;SDS011;63019;51.080;13.642;2022-09-01T01:18:25;3.63;;;1.85;;
74487;SDS011;63019;51.080;13.642;2022-09-01T01:20:58;5.00;;;1.58;;
74487;SDS011;63019;51.080;13.642;2022-09-01T01:22:27;4.40;;;1.25;;
74487;SDS011;63019;51.080;13.642;2022-09-01T01:23:51;2.53;;;1.48;;
74487;SDS011;63019;51.080;13.642;2022-09-01T01:24:58;4.40;;;1.60;;
74487;SDS011;63019;51.080;13.642;2022-09-01T01:26:03;3.85;;;1.48;;
74487;SDS011;63019;51.080;13.642;2022-09-01T01:27:06;3.55;;;1.52;;
74487;SDS011;63019;51.080;13.642;2022-09-01T01:28:15;4.35;;;1.40;;
74487;SDS011;63019;51.080;13.642;2022-09-01T01:29:21;7.00;;;1.37;;
74487;SDS011;63019;51.080;13.642;2022-09-01T01:30:23;5.10;;;1.52;;
74487;SDS011;63019;51.080;13.642;2022-09-01T01:31:25;5.47;;;1.35;;
74487;SDS011;63019;51.080;13.642;2022-09-01T01:32:27;4.85;;;1.42;;
74487;SDS011;63019;51.080;13.642;2022-09-01T01:34:03;3.22;;;1.45;;
74487;SDS011;63019;51.080;13.642;2022-09-01T01:34:58;5.78;;;1.77;;
74487;SDS011;63019;51.080;13.642;2022-09-01T01:36:02;3.95;;;1.55;;
74487;SDS011;63019;51.080;13.642;2022-09-01T01:37:08;2.58;;;1.40;;
74487;SDS011;63019;51.080;13.642;2022-09-01T01:38:11;2.35;;;1.30;;
74487;SDS011;63019;51.080;13.642;2022-09-01T01:39:16;2.00;;;1.40;;
74487;SDS011;63019;51.080;13.642;2022-09-01T01:40:21;4.53;;;1.60;;
74487;SDS011;63019;51.080;13.642;2022-09-01T01:41:23;5.35;;;1.58;;
74487;SDS011;63019;51.080;13.642;2022-09-01T01:42:25;4.40;;;1.52;;
74487;SDS011;63019;51.080;13.642;2022-09-01T01:43:28;6.53;;;1.40;;
74487;SDS011;63019;51.080;13.642;2022-09-01T01:44:30;6.55;;;1.55;;
74487;SDS011;63019;51.080;13.642;2022-09-01T01:45:32;8.73;;;1.60;;
74487;SDS011;63019;51.080;13.642;2022-09-01T01:46:35;2.85;;;1.40;;
74487;SDS011;63019;51.080;13.642;2022-09-01T01:47:37;2.78;;;1.35;;
74487;SDS011;63019;51.080;13.642;2022-09-01T01:48:40;2.88;;;1.48;;
74487;SDS011;63019;51.080;13.642;2022-09-01T01:49:42;3.45;;;1.60;;
74487;SDS011;63019;51.080;13.642;2022-09-01T01:50:44;4.83;;;1.60;;
74487;SDS011;63019;51.080;13.642;2022-09-01T01:51:50;4.57;;;1.58;;
74487;SDS011;63019;51.080;13.642;2022-09-01T01:52:56;5.85;;;1.77;;
74487;SDS011;63019;51.080;13.642;2022-09-01T01:54:00;5.72;;;1.40;;
74487;SDS011;63019;51.080;13.642;2022-09-01T01:55:06;7.93;;;1.60;;
74487;SDS011;63019;51.080;13.642;2022-09-01T01:56:12;3.53;;;2.33;;
74487;SDS011;63019;51.080;13.642;2022-09-01T01:57:14;3.85;;;1.50;;
74487;SDS011;63019;51.080;13.642;2022-09-01T01:58:18;8.68;;;1.60;;
74487;SDS011;63019;51.080;13.642;2022-09-01T01:59:21;5.05;;;1.83;;
74487;SDS011;63019;51.080;13.642;2022-09-01T02:00:26;3.88;;;1.83;;
74487;SDS011;63019;51.080;13.642;2022-09-01T02:01:31;4.13;;;1.70;;
74487;SDS011;63019;51.080;13.642;2022-09-01T02:02:32;8.73;;;1.58;;
74487;SDS011;63019;51.080;13.642;2022-09-01T02:03:34;5.60;;;1.60;;
74487;SDS011;63019;51.080;13.642;2022-09-01T02:04:39;4.85;;;1.65;;
74487;SDS011;63019;51.080;13.642;2022-09-01T02:05:41;6.43;;;1.77;;
74487;SDS011;63019;51.080;13.642;2022-09-01T02:06:44;2.60;;;1.50;;
74487;SDS011;63019;51.080;13.642;2022-09-01T02:07:47;7.97;;;1.73;;
74487;SDS011;63019;51.080;13.642;2022-09-01T02:08:51;5.13;;;1.52;;
74487;SDS011;63019;51.080;13.642;2022-09-01T02:09:56;3.33;;;1.80;;
74487;SDS011;63019;51.080;13.642;2022-09-01T02:10:58;4.15;;;1.92;;
74487;SDS011;63019;51.080;13.642;2022-09-01T02:12:00;6.67;;;2.00;;
74487;SDS011;63019;51.080;13.642;2022-09-01T02:13:03;7.43;;;2.45;;
74487;SDS011;63019;51.080;13.642;2022-09-01T02:14:07;8.32;;;2.95;;
74487;SDS011;63019;51.080;13.642;2022-09-01T02:15:09;16.83;;;4.43;;
74487;SDS011;63019;51.080;13.642;2022-09-01T02:16:13;10.18;;;3.72;;
74487;SDS011;63019;51.080;13.642;2022-09-01T02:17:17;11.57;;;3.88;;
74487;SDS011;63019;51.080;13.642;2022-09-01T02:18:23;12.50;;;3.78;;
74487;SDS011;63019;51.080;13.642;2022-09-01T02:19:28;9.20;;;3.20;;
74487;SDS011;63019;51.080;13.642;2022-09-01T02:20:29;8.32;;;3.28;;
74487;SDS011;63019;51.080;13.642;2022-09-01T02:21:33;13.23;;;3.22;;
74487;SDS011;63019;51.080;13.642;2022-09-01T02:22:35;12.03;;;3.33;;
74487;SDS011;63019;51.080;13.642;2022-09-01T02:23:40;13.05;;;3.28;;
74487;SDS011;63019;51.080;13.642;2022-09-01T02:24:42;11.68;;;3.65;;
74487;SDS011;63019;51.080;13.642;2022-09-01T02:25:50;11.55;;;3.40;;
74487;SDS011;63019;51.080;13.642;2022-09-01T02:27:14;8.23;;;2.90;;
74487;SDS011;63019;51.080;13.642;2022-09-01T02:28:22;9.38;;;2.90;;
74487;SDS011;63019;51.080;13.642;2022-09-01T02:29:24;14.15;;;3.08;;
74487;SDS011;63019;51.080;13.642;2022-09-01T02:30:26;9.18;;;2.60;;
74487;SDS011;63019;51.080;13.642;2022-09-01T02:31:31;14.55;;;2.85;;
74487;SDS011;63019;51.080;13.642;2022-09-01T02:32:39;7.60;;;2.60;;
74487;SDS011;63019;51.080;13.642;2022-09-01T02:33:42;7.07;;;2.20;;
74487;SDS011;63019;51.080;13.642;2022-09-01T02:34:45;6.82;;;2.50;;
74487;SDS011;63019;51.080;13.642;2022-09-01T02:35:54;8.13;;;2.70;;
74487;SDS011;63019;51.080;13.642;2022-09-01T02:36:58;8.38;;;2.60;;
74487;SDS011;63019;51.080;13.642;2022-09-01T02:38:00;8.35;;;2.50;;
74487;SDS011;63019;51.080;13.642;2022-09-01T02:39:02;6.78;;;2.40;;
74487;SDS011;63019;51.080;13.642;2022-09-01T02:40:08;10.45;;;2.47;;
74487;SDS011;63019;51.080;13.642;2022-09-01T02:41:11;8.75;;;2.38;;
74487;SDS011;63019;51.080;13.642;2022-09-01T02:42:14;8.75;;;2.45;;
74487;SDS011;63019;51.080;13.642;2022-09-01T02:43:16;7.47;;;2.10;;
74487;SDS011;63019;51.080;13.642;2022-09-01T02:44:20;6.07;;;2.33;;
74487;SDS011;63019;51.080;13.642;2022-09-01T02:45:23;7.68;;;2.50;;
74487;SDS011;63019;51.080;13.642;2022-09-01T02:46:24;7.32;;;2.20;;
74487;SDS011;63019;51.080;13.642;2022-09-01T02:47:26;6.03;;;2.45;;
74487;SDS011;63019;51.080;13.642;2022-09-01T02:48:32;7.70;;;2.70;;
74487;SDS011;63019;51.080;13.642;2022-09-01T02:49:38;6.75;;;2.35;;
74487;SDS011;63019;51.080;13.642;2022-09-01T02:50:43;7.53;;;2.33;;
74487;SDS011;63019;51.080;13.642;2022-09-01T02:51:47;6.20;;;2.30;;
74487;SDS011;63019;51.080;13.642;2022-09-01T02:52:54;10.38;;;2.25;;
74487;SDS011;63019;51.080;13.642;2022-09-01T02:53:55;5.07;;;2.20;;
74487;SDS011;63019;51.080;13.642;2022-09-01T02:54:58;4.67;;;2.10;;
74487;SDS011;63019;51.080;13.642;2022-09-01T02:56:00;4.57;;;1.80;;
74487;SDS011;63019;51.080;13.642;2022-09-01T02:57:03;5.60;;;2.00;;
74487;SDS011;63019;51.080;13.642;2022-09-01T02:58:05;7.85;;;2.10;;
74487;SDS011;63019;51.080;13.642;2022-09-01T02:59:13;4.53;;;1.98;;
74487;SDS011;63019;51.080;13.642;2022-09-01T03:00:17;4.78;;;1.83;;
74487;SDS011;63019;51.080;13.642;2022-09-01T03:01:33;3.65;;;1.80;;
74487;SDS011;63019;51.080;13.642;2022-09-01T03:02:35;8.27;;;1.77;;
74487;SDS011;63019;51.080;13.642;2022-09-01T03:03:37;7.25;;;2.15;;
74487;SDS011;63019;51.080;13.642;2022-09-01T03:04:39;4.13;;;1.75;;
74487;SDS011;63019;51.080;13.642;2022-09-01T03:05:40;4.97;;;1.80;;
74487;SDS011;63019;51.080;13.642;2022-09-01T03:06:43;3.95;;;1.70;;
74487;SDS011;63019;51.080;13.642;2022-09-01T03:07:46;4.15;;;1.50;;
74487;SDS011;63019;51.080;13.642;2022-09-01T03:08:47;4.22;;;1.90;;
74487;SDS011;63019;51.080;13.642;2022-09-01T03:09:50;6.50;;;2.00;;
74487;SDS011;63019;51.080;13.642;2022-09-01T03:10:52;7.93;;;1.92;;
74487;SDS011;63019;51.080;13.642;2022-09-01T03:11:54;5.07;;;1.90;;
74487;SDS011;63019;51.080;13.642;2022-09-01T03:12:56;4.65;;;1.98;;
74487;SDS011;63019;51.080;13.642;2022-09-01T03:14:00;5.85;;;2.05;;
74487;SDS011;63019;51.080;13.642;2022-09-01T03:15:02;5.60;;;2.10;;
74487;SDS011;63019;51.080;13.642;2022-09-01T03:16:09;5.17;;;2.20;;
74487;SDS011;63019;51.080;13.642;2022-09-01T03:17:11;6.93;;;2.20;;
74487;SDS011;63019;51.080;13.642;2022-09-01T03:18:14;3.88;;;2.17;;
74487;SDS011;63019;51.080;13.642;2022-09-01T03:19:16;5.63;;;2.38;;
74487;SDS011;63019;51.080;13.642;2022-09-01T03:20:19;5.35;;;2.28;;
74487;SDS011;63019;51.080;13.642;2022-09-01T03:21:21;15.82;;;2.50;;
74487;SDS011;63019;51.080;13.642;2022-09-01T03:22:23;3.97;;;1.90;;
74487;SDS011;63019;51.080;13.642;2022-09-01T03:23:25;5.72;;;2.40;;
74487;SDS011;63019;51.080;13.642;2022-09-01T03:24:28;5.75;;;2.20;;
74487;SDS011;63019;51.080;13.642;2022-09-01T03:25:30;3.78;;;1.90;;
74487;SDS011;63019;51.080;13.642;2022-09-01T03:26:32;6.23;;;2.00;;
74487;SDS011;63019;51.080;13.642;2022-09-01T03:27:34;4.22;;;2.00;;
74487;SDS011;63019;51.080;13.642;2022-09-01T03:28:35;2.50;;;1.70;;
74487;SDS011;63019;51.080;13.642;2022-09-01T03:29:37;7.95;;;2.40;;
74487;SDS011;63019;51.080;13.642;2022-09-01T03:30:43;7.30;;;2.22;;
74487;SDS011;63019;51.080;13.642;2022-09-01T03:31:55;2.75;;;1.65;;
74487;SDS011;63019;51.080;13.642;2022-09-01T03:32:57;5.28;;;1.92;;
74487;SDS011;63019;51.080;13.642;2022-09-01T03:34:00;5.15;;;1.90;;
74487;SDS011;63019;51.080;13.642;2022-09-01T03:35:06;3.45;;;1.90;;
74487;SDS011;63019;51.080;13.642;2022-09-01T03:36:09;4.63;;;2.05;;
74487;SDS011;63019;51.080;13.642;2022-09-01T03:37:19;7.20;;;1.80;;
74487;SDS011;63019;51.080;13.642;2022-09-01T03:38:26;4.45;;;2.00;;
74487;SDS011;63019;51.080;13.642;2022-09-01T03:39:28;6.00;;;2.03;;
74487;SDS011;63019;51.080;13.642;2022-09-01T03:40:31;6.97;;;1.67;;
74487;SDS011;63019;51.080;13.642;2022-09-01T03:41:36;5.40;;;1.67;;
74487;SDS011;63019;51.080;13.642;2022-09-01T03:42:38;6.75;;;2.00;;
74487;SDS011;63019;51.080;13.642;2022-09-01T03:43:40;6.10;;;1.90;;
74487;SDS011;63019;51.080;13.642;2022-09-01T03:44:48;9.48;;;2.00;;
74487;SDS011;63019;51.080;13.642;2022-09-01T03:45:53;3.85;;;1.75;;
74487;SDS011;63019;51.080;13.642;2022-09-01T03:46:56;5.45;;;1.92;;
74487;SDS011;63019;51.080;13.642;2022-09-01T03:47:58;9.00;;;1.80;;
74487;SDS011;63019;51.080;13.642;2022-09-01T03:49:00;10.32;;;1.80;;
74487;SDS011;63019;51.080;13.642;2022-09-01T03:50:04;2.90;;;1.42;;
74487;SDS011;63019;51.080;13.642;2022-09-01T03:51:21;4.63;;;1.98;;
74487;SDS011;63019;51.080;13.642;2022-09-01T03:52:24;5.72;;;1.80;;
74487;SDS011;63019;51.080;13.642;2022-09-01T03:53:26;6.55;;;1.73;;
74487;SDS011;63019;51.080;13.642;2022-09-01T03:54:28;2.85;;;1.65;;
74487;SDS011;63019;51.080;13.642;2022-09-01T03:55:31;4.30;;;1.83;;
74487;SDS011;63019;51.080;13.642;2022-09-01T03:56:34;2.05;;;1.60;;
74487;SDS011;63019;51.080;13.642;2022-09-01T03:57:36;4.85;;;1.90;;
74487;SDS011;63019;51.080;13.642;2022-09-01T03:58:43;7.07;;;1.93;;
74487;SDS011;63019;51.080;13.642;2022-09-01T03:59:47;7.63;;;1.98;;
74487;SDS011;63019;51.080;13.642;2022-09-01T04:00:51;4.70;;;1.83;;
74487;SDS011;63019;51.080;13.642;2022-09-01T04:01:58;3.33;;;1.80;;
74487;SDS011;63019;51.080;13.642;2022-09-01T04:03:01;4.57;;;2.00;;
74487;SDS011;63019;51.080;13.642;2022-09-01T04:04:04;5.35;;;1.75;;
74487;SDS011;63019;51.080;13.642;2022-09-01T04:05:06;3.03;;;1.40;;
74487;SDS011;63019;51.080;13.642;2022-09-01T04:06:09;5.57;;;1.80;;
74487;SDS011;63019;51.080;13.642;2022-09-01T04:07:12;6.10;;;1.63;;
74487;SDS011;63019;51.080;13.642;2022-09-01T04:08:20;3.33;;;1.80;;
74487;SDS011;63019;51.080;13.642;2022-09-01T04:09:25;6.53;;;1.70;;
74487;SDS011;63019;51.080;13.642;2022-09-01T04:10:27;7.25;;;1.60;;
74487;SDS011;63019;51.080;13.642;2022-09-01T04:11:29;3.30;;;1.70;;
74487;SDS011;63019;51.080;13.642;2022-09-01T04:12:32;3.75;;;1.50;;
74487;SDS011;63019;51.080;13.642;2022-09-01T04:13:35;3.25;;;1.63;;
74487;SDS011;63019;51.080;13.642;2022-09-01T04:14:38;5.55;;;1.80;;
74487;SDS011;63019;51.080;13.642;2022-09-01T04:15:40;2.55;;;1.50;;
74487;SDS011;63019;51.080;13.642;2022-09-01T04:16:42;3.22;;;1.70;;
74487;SDS011;63019;51.080;13.642;2022-09-01T04:18:02;3.28;;;1.48;;
74487;SDS011;63019;51.080;13.642;2022-09-01T04:19:09;4.88;;;1.50;;
74487;SDS011;63019;51.080;13.642;2022-09-01T04:20:25;7.40;;;1.80;;
74487;SDS011;63019;51.080;13.642;2022-09-01T04:21:27;4.25;;;1.80;;
74487;SDS011;63019;51.080;13.642;2022-09-01T04:22:30;3.97;;;1.52;;
74487;SDS011;63019;51.080;13.642;2022-09-01T04:23:37;5.70;;;1.60;;
74487;SDS011;63019;51.080;13.642;2022-09-01T04:24:39;6.93;;;1.90;;
74487;SDS011;63019;51.080;13.642;2022-09-01T04:26:04;4.15;;;1.77;;
74487;SDS011;63019;51.080;13.642;2022-09-01T04:27:11;3.17;;;1.73;;
74487;SDS011;63019;51.080;13.642;2022-09-01T04:28:15;3.15;;;1.38;;
74487;SDS011;63019;51.080;13.642;2022-09-01T04:29:23;5.00;;;1.83;;
74487;SDS011;63019;51.080;13.642;2022-09-01T04:30:28;4.55;;;1.60;;
74487;SDS011;63019;51.080;13.642;2022-09-01T04:31:31;4.67;;;1.90;;
74487;SDS011;63019;51.080;13.642;2022-09-01T04:32:33;3.63;;;1.40;;
74487;SDS011;63019;51.080;13.642;2022-09-01T04:33:36;3.92;;;1.60;;
74487;SDS011;63019;51.080;13.642;2022-09-01T04:34:40;5.07;;;1.75;;
74487;SDS011;63019;51.080;13.642;2022-09-01T04:35:42;5.43;;;1.65;;
74487;SDS011;63019;51.080;13.642;2022-09-01T04:36:44;2.78;;;1.60;;
74487;SDS011;63019;51.080;13.642;2022-09-01T04:37:50;2.80;;;1.77;;
74487;SDS011;63019;51.080;13.642;2022-09-01T04:38:58;5.28;;;1.60;;
74487;SDS011;63019;51.080;13.642;2022-09-01T04:40:02;2.28;;;1.42;;
74487;SDS011;63019;51.080;13.642;2022-09-01T04:41:05;2.53;;;1.33;;
74487;SDS011;63019;51.080;13.642;2022-09-01T04:42:07;5.83;;;1.50;;
74487;SDS011;63019;51.080;13.642;2022-09-01T04:43:10;7.20;;;1.80;;
74487;SDS011;63019;51.080;13.642;2022-09-01T04:44:12;7.10;;;1.45;;
74487;SDS011;63019;51.080;13.642;2022-09-01T04:45:16;3.85;;;1.65;;
74487;SDS011;63019;51.080;13.642;2022-09-01T04:46:25;3.28;;;1.60;;
74487;SDS011;63019;51.080;13.642;2022-09-01T04:47:29;7.55;;;1.60;;
74487;SDS011;63019;51.080;13.642;2022-09-01T04:48:36;5.03;;;1.65;;
74487;SDS011;63019;51.080;13.642;2022-09-01T04:49:38;2.90;;;1.40;;
74487;SDS011;63019;51.080;13.642;2022-09-01T04:50:40;8.57;;;1.60;;
74487;SDS011;63019;51.080;13.642;2022-09-01T04:51:42;4.63;;;1.52;;
74487;SDS011;63019;51.080;13.642;2022-09-01T04:52:53;4.07;;;1.50;;
74487;SDS011;63019;51.080;13.642;2022-09-01T04:53:56;9.73;;;1.73;;
74487;SDS011;63019;51.080;13.642;2022-09-01T04:54:58;2.45;;;1.40;;
74487;SDS011;63019;51.080;13.642;2022-09-01T04:56:04;3.53;;;1.23;;
74487;SDS011;63019;51.080;13.642;2022-09-01T04:57:07;6.63;;;1.80;;
74487;SDS011;63019;51.080;13.642;2022-09-01T04:58:10;6.93;;;1.65;;
74487;SDS011;63019;51.080;13.642;2022-09-01T04:59:13;3.60;;;1.60;;
74487;SDS011;63019;51.080;13.642;2022-09-01T05:00:20;3.17;;;1.50;;
74487;SDS011;63019;51.080;13.642;2022-09-01T05:01:25;3.75;;;1.40;;
74487;SDS011;63019;51.080;13.642;2022-09-01T05:02:27;3.47;;;1.30;;
74487;SDS011;63019;51.080;13.642;2022-09-01T05:03:29;4.43;;;1.63;;
74487;SDS011;63019;51.080;13.642;2022-09-01T05:04:32;4.82;;;1.50;;
74487;SDS011;63019;51.080;13.642;2022-09-01T05:05:43;3.78;;;1.73;;
74487;SDS011;63019;51.080;13.642;2022-09-01T05:06:47;2.25;;;1.33;;
74487;SDS011;63019;51.080;13.642;2022-09-01T05:07:51;3.28;;;1.90;;
74487;SDS011;63019;51.080;13.642;2022-09-01T05:08:54;4.15;;;1.38;;
74487;SDS011;63019;51.080;13.642;2022-09-01T05:09:57;2.53;;;1.23;;
74487;SDS011;63019;51.080;13.642;2022-09-01T05:11:02;6.05;;;1.52;;
74487;SDS011;63019;51.080;13.642;2022-09-01T05:12:07;6.43;;;1.40;;
74487;SDS011;63019;51.080;13.642;2022-09-01T05:13:16;3.03;;;1.50;;
74487;SDS011;63019;51.080;13.642;2022-09-01T05:14:18;7.37;;;1.50;;
74487;SDS011;63019;51.080;13.642;2022-09-01T05:15:21;5.43;;;1.48;;
74487;SDS011;63019;51.080;13.642;2022-09-01T05:16:23;5.50;;;1.48;;
74487;SDS011;63019;51.080;13.642;2022-09-01T05:17:28;8.02;;;1.50;;
74487;SDS011;63019;51.080;13.642;2022-09-01T05:18:29;2.97;;;1.50;;
74487;SDS011;63019;51.080;13.642;2022-09-01T05:19:32;8.05;;;1.60;;
74487;SDS011;63019;51.080;13.642;2022-09-01T05:20:38;6.07;;;1.60;;
74487;SDS011;63019;51.080;13.642;2022-09-01T05:21:42;6.93;;;1.70;;
74487;SDS011;63019;51.080;13.642;2022-09-01T05:22:46;6.40;;;1.58;;
74487;SDS011;63019;51.080;13.642;2022-09-01T05:23:47;4.07;;;1.60;;
74487;SDS011;63019;51.080;13.642;2022-09-01T05:24:52;3.27;;;1.60;;
74487;SDS011;63019;51.080;13.642;2022-09-01T05:25:55;4.20;;;1.52;;
74487;SDS011;63019;51.080;13.642;2022-09-01T05:26:57;3.35;;;1.30;;
74487;SDS011;63019;51.080;13.642;2022-09-01T05:28:00;4.28;;;1.67;;
74487;SDS011;63019;51.080;13.642;2022-09-01T05:29:03;5.47;;;2.03;;
74487;SDS011;63019;51.080;13.642;2022-09-01T05:30:11;4.40;;;1.63;;
74487;SDS011;63019;51.080;13.642;2022-09-01T05:31:13;4.38;;;1.63;;
74487;SDS011;63019;51.080;13.642;2022-09-01T05:32:19;7.75;;;1.85;;
74487;SDS011;63019;51.080;13.642;2022-09-01T05:33:26;4.95;;;1.73;;
74487;SDS011;63019;51.080;13.642;2022-09-01T05:34:27;11.05;;;1.85;;
74487;SDS011;63019;51.080;13.642;2022-09-01T05:35:31;4.03;;;2.13;;
74487;SDS011;63019;51.080;13.642;2022-09-01T05:36:35;7.13;;;1.83;;
74487;SDS011;63019;51.080;13.642;2022-09-01T05:37:39;9.43;;;2.05;;
74487;SDS011;63019;51.080;13.642;2022-09-01T05:38:43;4.28;;;1.67;;
74487;SDS011;63019;51.080;13.642;2022-09-01T05:39:45;5.80;;;1.65;;
74487;SDS011;63019;51.080;13.642;2022-09-01T05:40:57;5.07;;;2.10;;
74487;SDS011;63019;51.080;13.642;2022-09-01T05:42:07;3.25;;;2.13;;
74487;SDS011;63019;51.080;13.642;2022-09-01T05:43:12;8.73;;;2.00;;
74487;SDS011;63019;51.080;13.642;2022-09-01T05:44:15;5.60;;;2.10;;
74487;SDS011;63019;51.080;13.642;2022-09-01T05:45:17;4.50;;;1.85;;
74487;SDS011;63019;51.080;13.642;2022-09-01T05:46:21;4.00;;;1.93;;
74487;SDS011;63019;51.080;13.642;2022-09-01T05:47:24;3.65;;;1.98;;
74487;SDS011;63019;51.080;13.642;2022-09-01T05:48:26;5.47;;;2.00;;
74487;SDS011;63019;51.080;13.642;2022-09-01T05:49:31;5.03;;;1.88;;
74487;SDS011;63019;51.080;13.642;2022-09-01T05:50:34;6.50;;;1.98;;
74487;SDS011;63019;51.080;13.642;2022-09-01T05:51:41;6.88;;;1.70;;
74487;SDS011;63019;51.080;13.642;2022-09-01T05:52:50;4.00;;;1.90;;
74487;SDS011;63019;51.080;13.642;2022-09-01T05:53:52;4.70;;;2.15;;
74487;SDS011;63019;51.080;13.642;2022-09-01T05:54:59;5.13;;;1.95;;
74487;SDS011;63019;51.080;13.642;2022-09-01T05:56:05;6.45;;;2.00;;
74487;SDS011;63019;51.080;13.642;2022-09-01T05:57:09;2.80;;;1.70;;
74487;SDS011;63019;51.080;13.642;2022-09-01T05:58:31;7.30;;;2.10;;
74487;SDS011;63019;51.080;13.642;2022-09-01T05:59:54;5.30;;;1.73;;
74487;SDS011;63019;51.080;13.642;2022-09-01T06:00:56;6.93;;;1.80;;
74487;SDS011;63019;51.080;13.642;2022-09-01T06:01:59;4.50;;;1.83;;
74487;SDS011;63019;51.080;13.642;2022-09-01T06:03:01;6.95;;;1.85;;
74487;SDS011;63019;51.080;13.642;2022-09-01T06:04:05;8.88;;;2.13;;
74487;SDS011;63019;51.080;13.642;2022-09-01T06:05:09;2.60;;;1.70;;
74487;SDS011;63019;51.080;13.642;2022-09-01T06:06:11;4.45;;;1.70;;
74487;SDS011;63019;51.080;13.642;2022-09-01T06:07:14;3.50;;;2.00;;
74487;SDS011;63019;51.080;13.642;2022-09-01T06:08:21;7.13;;;1.80;;
74487;SDS011;63019;51.080;13.642;2022-09-01T06:09:25;2.28;;;1.73;;
74487;SDS011;63019;51.080;13.642;2022-09-01T06:10:27;3.20;;;1.60;;
74487;SDS011;63019;51.080;13.642;2022-09-01T06:11:30;4.80;;;1.50;;
74487;SDS011;63019;51.080;13.642;2022-09-01T06:12:33;4.35;;;1.80;;
74487;SDS011;63019;51.080;13.642;2022-09-01T06:13:35;5.80;;;1.73;;
74487;SDS011;63019;51.080;13.642;2022-09-01T06:14:37;6.28;;;1.80;;
74487;SDS011;63019;51.080;13.642;2022-09-01T06:15:39;4.05;;;1.88;;
74487;SDS011;63019;51.080;13.642;2022-09-01T06:16:41;8.27;;;2.15;;
74487;SDS011;63019;51.080;13.642;2022-09-01T06:17:44;10.80;;;1.90;;
74487;SDS011;63019;51.080;13.642;2022-09-01T06:18:46;4.17;;;1.70;;
74487;SDS011;63019;51.080;13.642;2022-09-01T06:19:54;5.88;;;1.83;;
74487;SDS011;63019;51.080;13.642;2022-09-01T06:20:57;5.65;;;1.98;;
74487;SDS011;63019;51.080;13.642;2022-09-01T06:21:59;4.32;;;1.80;;
74487;SDS011;63019;51.080;13.642;2022-09-01T06:23:02;6.30;;;2.03;;